Time;durP1;ratioP1;P1;durP2;ratioP2;P2;SDS_P1;SDS_P2;PMS_P1;PMS_P2;Temp;Humidity;BMP_temperature;BMP_pressure;BME280_temperature;BME280_humidity;BME280_pressure;Samples;Min_cycle;Max_cycle;Signal;HPM_P1;HPM_P2
2022/05/16 00:00:07;;;;;;;9.13;4.40;;;;;;;6.88;68.62;99248.44;2263196;79;20914;-79
2022/05/16 00:03:08;;;;;;;6.93;4.57;;;;;;;6.88;68.67;99248.86;2263099;78;21424;-79
2022/05/16 00:06:08;;;;;;;6.80;4.33;;;;;;;6.79;68.47;99250.73;2263123;78;20969;-79
2022/05/16 00:09:09;;;;;;;7.97;4.40;;;;;;;6.67;68.68;99256.40;2262803;79;20973;-79
2022/05/16 00:12:09;;;;;;;7.87;3.57;;;;;;;6.60;68.76;99251.83;2263108;78;21018;-79
2022/05/16 00:15:10;;;;;;;6.13;4.33;;;;;;;6.61;69.04;99250.12;2262858;78;20968;-79
2022/05/16 00:18:10;;;;;;;7.97;3.93;;;;;;;6.59;69.34;99248.77;2263013;78;20922;-79
2022/05/16 00:21:10;;;;;;;8.90;4.20;;;;;;;6.60;69.22;99247.06;2263202;78;20942;-79
2022/05/16 00:24:11;;;;;;;6.93;4.00;;;;;;;6.56;69.28;99247.78;2263284;79;21361;-79
2022/05/16 00:27:11;;;;;;;6.20;4.37;;;;;;;6.52;69.39;99244.63;2263307;78;20922;-79
2022/05/16 00:30:12;;;;;;;7.80;4.17;;;;;;;6.46;69.31;99234.04;2263572;78;20962;-79
2022/05/16 00:33:12;;;;;;;5.40;4.23;;;;;;;6.36;69.20;99240.20;2263417;79;21294;-79
2022/05/16 00:36:12;;;;;;;10.53;5.07;;;;;;;6.42;69.63;99243.84;2262443;78;21326;-79
2022/05/16 00:39:13;;;;;;;7.50;4.63;;;;;;;6.46;69.74;99244.00;2262595;78;20965;-80
2022/05/16 00:42:13;;;;;;;7.70;4.30;;;;;;;6.47;69.78;99238.39;2262411;78;20980;-80
2022/05/16 00:45:13;;;;;;;8.13;4.40;;;;;;;6.44;69.33;99235.28;2262385;78;20940;-80
2022/05/16 00:48:14;;;;;;;9.13;4.67;;;;;;;6.38;69.67;99248.04;2262531;78;20945;-79
2022/05/16 00:51:14;;;;;;;7.00;4.20;;;;;;;6.39;69.75;99246.80;2262752;78;20906;-79
2022/05/16 00:54:15;;;;;;;10.60;4.23;;;;;;;6.39;70.06;99242.91;2262390;78;20918;-80
2022/05/16 00:57:16;;;;;;;6.80;4.60;;;;;;;6.44;69.96;99246.07;2262547;78;20906;-79
2022/05/16 01:00:16;;;;;;;6.10;4.00;;;;;;;6.39;70.18;99254.58;2262456;78;21013;-79
2022/05/16 01:06:35;;;;;;;7.97;4.87;;;;;;;6.26;69.94;99249.79;2262948;78;20979;-79
2022/05/16 01:09:36;;;;;;;9.97;4.73;;;;;;;6.23;70.22;99251.39;2262586;78;21330;-79
2022/05/16 01:12:36;;;;;;;6.67;4.50;;;;;;;6.18;70.34;99251.23;2262821;78;20949;-79
2022/05/16 01:15:36;;;;;;;5.03;4.17;;;;;;;6.15;70.20;99256.72;2262930;78;20949;-79
2022/05/16 01:18:37;;;;;;;7.27;4.80;;;;;;;6.09;70.19;99256.09;2262788;78;20999;-79
2022/05/16 01:21:37;;;;;;;7.10;3.87;;;;;;;6.07;70.14;99256.45;2262138;78;21044;-80
2022/05/16 01:24:39;;;;;;;8.93;4.23;;;;;;;6.00;70.17;99254.42;2262658;78;20926;-79
2022/05/16 01:27:38;;;;;;;5.73;3.90;;;;;;;5.98;70.38;99248.30;2262513;78;20882;-79
2022/05/16 01:30:39;;;;;;;7.27;4.13;;;;;;;5.97;70.42;99253.02;2262478;78;20925;-79
2022/05/16 01:33:39;;;;;;;5.43;4.20;;;;;;;5.95;70.41;99249.48;2263074;78;21340;-79
2022/05/16 01:36:39;;;;;;;5.67;3.90;;;;;;;5.90;70.45;99256.21;2262713;77;21005;-79
2022/05/16 01:39:40;;;;;;;7.17;3.60;;;;;;;5.86;70.29;99256.48;2262070;79;20930;-78
2022/05/16 01:42:40;;;;;;;5.93;4.60;;;;;;;5.79;70.51;99257.08;2262054;78;20984;-80
2022/05/16 01:45:41;;;;;;;13.20;5.00;;;;;;;5.75;70.62;99261.67;2262934;78;20954;-79
2022/05/16 01:48:41;;;;;;;8.33;3.80;;;;;;;5.68;71.00;99262.27;2262814;78;21289;-79
2022/05/16 01:51:41;;;;;;;4.73;3.60;;;;;;;5.68;71.08;99264.45;2262722;78;20919;-79
2022/05/16 01:54:42;;;;;;;6.77;3.70;;;;;;;5.63;70.91;99271.16;2263026;79;20957;-79
2022/05/16 01:57:42;;;;;;;6.77;3.70;;;;;;;5.59;71.00;99269.69;2262981;78;21361;-79
2022/05/16 02:00:42;;;;;;;4.83;4.17;;;;;;;5.58;70.94;99271.40;2263082;78;20918;-79
2022/05/16 02:03:43;;;;;;;10.50;4.27;;;;;;;5.59;70.90;99267.98;2262911;78;20915;-79
2022/05/16 02:06:43;;;;;;;7.40;3.90;;;;;;;5.59;70.96;99264.52;2262846;78;20913;-80
2022/05/16 02:09:44;;;;;;;5.57;3.97;;;;;;;5.56;70.97;99268.28;2262977;78;20875;-79
2022/05/16 02:12:44;;;;;;;5.67;4.10;;;;;;;5.54;70.94;99269.93;2262712;78;21325;-79
2022/05/16 02:15:44;;;;;;;7.83;4.40;;;;;;;5.48;70.80;99270.98;2262938;79;20922;-79
2022/05/16 02:18:45;;;;;;;57.43;7.20;;;;;;;5.46;71.00;99267.05;2262898;78;20958;-78
2022/05/16 02:25:05;;;;;;;13.80;4.10;;;;;;;5.43;70.68;99265.63;2262972;78;20938;-80
2022/05/16 02:28:04;;;;;;;10.27;3.80;;;;;;;5.44;71.02;99272.58;2263219;78;20985;-79
2022/05/16 02:31:05;;;;;;;5.60;3.63;;;;;;;5.42;71.00;99266.45;2263466;78;20919;-79
2022/05/16 02:34:05;;;;;;;6.00;3.83;;;;;;;5.37;70.68;99272.75;2262528;78;20917;-80
2022/05/16 02:37:06;;;;;;;6.77;4.07;;;;;;;5.35;70.78;99268.34;2262116;78;21298;-79
2022/05/16 02:40:06;;;;;;;8.63;4.47;;;;;;;5.32;70.55;99275.98;2262302;78;20962;-79
2022/05/16 02:43:06;;;;;;;8.80;4.30;;;;;;;5.24;70.39;99278.68;2262441;79;20987;-80
2022/05/16 02:46:07;;;;;;;23.50;5.60;;;;;;;5.17;70.59;99285.70;2262326;78;21368;-80
2022/05/16 02:49:07;;;;;;;5.30;3.67;;;;;;;5.10;70.94;99284.16;2262255;78;20958;-80
2022/05/16 02:52:08;;;;;;;6.07;4.00;;;;;;;5.12;70.94;99277.75;2262220;78;21001;-79
2022/05/16 02:55:08;;;;;;;7.00;3.90;;;;;;;5.13;71.10;99281.69;2262429;78;21413;-79
2022/05/16 02:58:08;;;;;;;6.70;3.77;;;;;;;5.15;70.74;99275.28;2262358;79;21056;-79
2022/05/16 03:01:09;;;;;;;20.00;5.03;;;;;;;5.11;70.66;99287.22;2263256;78;20938;-80
2022/05/16 03:04:09;;;;;;;7.93;4.30;;;;;;;5.09;70.80;99286.69;2263028;78;21329;-79
2022/05/16 03:07:10;;;;;;;5.03;3.60;;;;;;;5.09;71.11;99283.69;2261433;79;20926;-80
2022/05/16 03:10:11;;;;;;;6.57;4.27;;;;;;;5.11;70.95;99281.16;2262203;78;20934;-79
2022/05/16 03:13:10;;;;;;;44.57;5.70;;;;;;;5.15;71.19;99277.87;2262973;78;20871;-79
2022/05/16 03:16:11;;;;;;;113.07;11.17;;;;;;;5.18;71.08;99278.41;2262369;78;21013;-74
2022/05/16 03:19:11;;;;;;;11.07;4.97;;;;;;;5.20;71.09;99275.47;2262171;78;21353;-79
2022/05/16 03:22:12;;;;;;;8.03;4.10;;;;;;;5.24;71.08;99273.50;2261994;78;21442;-79
2022/05/16 03:25:12;;;;;;;8.03;4.43;;;;;;;5.26;70.88;99279.63;2262351;78;20930;-79
2022/05/16 03:28:12;;;;;;;6.20;4.37;;;;;;;5.31;70.89;99283.28;2261513;79;20883;-79
2022/05/16 03:31:13;;;;;;;5.30;4.10;;;;;;;5.34;70.83;99283.40;2262269;78;20930;-79
2022/05/16 03:34:13;;;;;;;11.67;4.13;;;;;;;5.39;70.58;99287.94;2262484;79;20918;-80
2022/05/16 03:37:14;;;;;;;41.90;14.67;;;;;;;5.49;70.96;99294.77;2261978;77;21052;-79
2022/05/16 03:43:33;;;;;;;24.17;10.83;;;;;;;5.64;71.50;99296.23;2262417;78;20958;-80
2022/05/16 03:46:33;;;;;;;14.57;6.70;;;;;;;5.69;71.34;99300.30;2263091;78;20923;-79
2022/05/16 03:49:34;;;;;;;14.83;8.23;;;;;;;5.72;70.86;99301.30;2262825;79;21049;-79
2022/05/16 03:52:34;;;;;;;102.50;13.20;;;;;;;5.74;70.94;99303.53;2262586;78;20922;-80
2022/05/16 03:55:35;;;;;;;41.77;11.40;;;;;;;5.81;71.23;99304.65;2263165;78;20898;-79
2022/05/16 03:58:36;;;;;;;19.97;8.93;;;;;;;5.90;71.24;99302.44;2262404;79;21084;-79
2022/05/16 04:01:36;;;;;;;29.77;10.70;;;;;;;5.96;71.08;99297.89;2262103;78;20993;-80
2022/05/16 04:04:37;;;;;;;15.83;7.70;;;;;;;6.04;71.07;99293.47;2260443;78;20958;-77
2022/05/16 04:07:37;;;;;;;15.07;7.67;;;;;;;6.15;71.38;99295.59;2261189;78;21350;-79
2022/05/16 04:10:37;;;;;;;14.50;7.20;;;;;;;6.27;71.39;99293.03;2261455;78;20981;-78
2022/05/16 04:13:38;;;;;;;9.40;6.17;;;;;;;6.44;71.38;99284.97;2262510;78;20997;-79
2022/05/16 04:16:38;;;;;;;11.30;4.97;;;;;;;6.60;71.61;99285.97;2263030;79;20930;-79
2022/05/16 04:19:39;;;;;;;10.90;4.90;;;;;;;6.82;71.61;99288.88;2261593;78;20985;-79
2022/05/16 04:22:39;;;;;;;8.40;4.47;;;;;;;7.03;71.21;99284.02;2262674;79;21031;-80
2022/05/16 04:25:39;;;;;;;513.23;36.97;;;;;;;7.29;71.16;99282.25;2261702;78;20886;-79
2022/05/16 04:28:42;;;;;;;14.43;5.03;;;;;;;7.81;70.82;99279.98;2261546;78;21052;-79
2022/05/16 04:31:43;;;;;;;9.17;4.97;;;;;;;7.81;70.82;99279.98;2262568;78;21340;-78
2022/05/16 04:34:43;;;;;;;10.50;5.20;;;;;;;8.04;70.81;99281.06;2261940;78;20974;-79
2022/05/16 04:37:44;;;;;;;32.00;7.83;;;;;;;8.31;70.65;99281.84;2268771;78;21017;-79
2022/05/16 04:44:04;;;;;;;14.10;6.27;;;;;;;8.91;70.51;99280.05;2289900;77;21014;-79
2022/05/16 04:47:05;;;;;;;14.47;7.30;;;;;;;9.28;70.04;99282.25;2288034;77;20958;-79
2022/05/16 04:50:05;;;;;;;14.77;7.13;;;;;;;9.57;69.97;99281.23;2287260;78;21007;-78
2022/05/16 04:53:05;;;;;;;45.07;9.93;;;;;;;9.86;69.91;99287.51;2287995;77;21023;-79
2022/05/16 04:56:06;;;;;;;23.27;9.10;;;;;;;10.19;69.21;99280.81;2286551;78;20973;-79
2022/05/16 04:59:07;;;;;;;20.60;8.80;;;;;;;10.52;68.45;99281.53;2288012;77;21052;-80
2022/05/16 05:02:07;;;;;;;21.87;8.73;;;;;;;10.87;67.46;99284.33;2288534;77;21057;-80
2022/05/16 05:05:07;;;;;;;19.43;8.57;;;;;;;11.16;66.78;99280.05;2288173;77;20976;-84
2022/05/16 05:08:07;;;;;;;24.30;8.30;;;;;;;12.23;68.61;99274.25;2287521;77;20993;-82
2022/05/16 05:17:27;;;;;;;17.15;7.12;;;;;;;15.56;58.71;99272.69;2287878;77;21229;-84
2022/05/16 05:20:28;;;;;;;22.20;6.83;;;;;;;16.64;54.98;99266.25;2287988;77;21380;-84
2022/05/16 05:23:28;;;;;;;10.65;6.25;;;;;;;17.61;51.74;99264.22;2287738;77;21065;-84
2022/05/16 05:26:29;;;;;;;11.53;5.85;;;;;;;17.98;50.18;99256.81;2287630;77;20946;-83
2022/05/16 05:29:29;;;;;;;10.82;6.05;;;;;;;18.74;51.59;99255.89;2287641;77;21049;-84
2022/05/16 05:32:29;;;;;;;8.45;5.72;;;;;;;19.45;49.83;99256.98;2288796;77;20973;-84
2022/05/16 05:35:30;;;;;;;9.30;5.65;;;;;;;19.67;47.55;99257.06;2287534;77;21425;-84
2022/05/16 05:38:30;;;;;;;10.20;5.58;;;;;;;19.61;45.41;99258.50;2287310;77;21071;-83
2022/05/16 05:41:34;;;;;;;11.10;5.33;;;;;;;19.47;44.00;99256.96;2286878;78;20996;-84
2022/05/16 05:44:34;;;;;;;10.70;5.30;;;;;;;18.87;43.82;99258.34;2286568;78;21011;-83
2022/05/16 05:47:34;;;;;;;10.93;5.00;;;;;;;18.87;43.82;99258.34;2285767;78;21455;-77
2022/05/16 05:50:35;;;;;;;16.12;5.45;;;;;;;18.89;43.11;99257.88;2285080;78;21262;-84
2022/05/16 05:53:37;;;;;;;17.70;5.17;;;;;;;18.76;44.54;99259.83;2287562;77;21029;-84
2022/05/16 05:56:37;;;;;;;11.55;4.85;;;;;;;18.99;46.02;99259.48;2288182;77;20938;-84
2022/05/16 05:59:36;;;;;;;12.60;5.35;;;;;;;18.88;44.43;99255.68;2288354;78;21017;-84
2022/05/16 06:02:40;;;;;;;15.35;5.90;;;;;;;18.91;45.47;99258.28;2286898;77;21032;-80
2022/05/16 06:05:37;;;;;;;9.45;5.45;;;;;;;19.30;44.89;99262.55;2286206;78;20982;-82
2022/05/16 06:08:37;;;;;;;15.08;5.42;;;;;;;18.96;44.02;99264.83;2285909;77;20934;-80
2022/05/16 06:11:37;;;;;;;9.70;4.80;;;;;;;18.63;44.33;99259.13;2285293;77;21012;-80
2022/05/16 06:14:38;;;;;;;11.43;4.75;;;;;;;18.30;44.69;99271.44;2285115;77;21013;-80
2022/05/16 06:17:39;;;;;;;20.02;6.15;;;;;;;18.25;45.06;99264.89;2285545;77;20953;-81
2022/05/16 06:20:39;;;;;;;11.85;4.72;;;;;;;18.28;45.03;99266.17;2284881;77;21044;-81
2022/05/16 06:23:39;;;;;;;8.80;5.08;;;;;;;18.37;44.66;99265.19;2285525;78;21010;-81
2022/05/16 06:26:39;;;;;;;9.98;5.50;;;;;;;18.45;44.61;99269.48;2286504;77;21068;-78
2022/05/16 06:29:40;;;;;;;65.78;39.40;;;;;;;18.63;44.69;99267.06;2286311;78;21402;-80
2022/05/16 06:32:40;;;;;;;11.95;9.20;;;;;;;18.71;44.69;99262.98;2286876;78;20949;-80
2022/05/16 06:35:41;;;;;;;4.28;3.10;;;;;;;18.86;44.56;99265.41;2286453;77;20906;-81
2022/05/16 06:38:41;;;;;;;5.53;2.30;;;;;;;18.78;43.77;99271.27;2286164;76;20954;-81
2022/05/16 06:41:42;;;;;;;4.17;3.33;;;;;;;18.87;42.67;99264.52;2286165;78;20966;-80
2022/05/16 06:44:42;;;;;;;6.33;3.30;;;;;;;18.92;43.29;99261.80;2286383;78;21906;-80
2022/05/16 06:47:42;;;;;;;4.50;3.08;;;;;;;19.11;43.73;99266.39;2285258;78;20977;-80
2022/05/16 06:50:43;;;;;;;8.68;2.90;;;;;;;19.27;43.05;99270.09;2286865;78;20981;-79
2022/05/16 06:53:43;;;;;;;17.65;3.92;;;;;;;19.42;42.77;99274.25;2285719;77;20989;-82
2022/05/16 06:56:44;;;;;;;8.68;4.10;;;;;;;19.40;42.46;99275.59;2286377;77;20977;-78
2022/05/16 06:59:44;;;;;;;6.83;3.83;;;;;;;19.39;42.10;99278.27;2284354;77;21099;-79
2022/05/16 07:02:46;;;;;;;61.55;7.90;;;;;;;19.47;42.59;99271.52;2284765;77;21021;-80
2022/05/16 07:05:46;;;;;;;9.55;4.08;;;;;;;19.63;42.30;99269.94;2285534;78;21595;-80
2022/05/16 07:08:46;;;;;;;7.50;2.22;;;;;;;19.72;41.69;99272.41;2286378;77;20981;-75
2022/05/16 07:11:47;;;;;;;3.15;2.25;;;;;;;19.82;40.05;99268.27;2285697;78;21006;-79
2022/05/16 07:14:48;;;;;;;3.15;2.08;;;;;;;19.91;40.00;99265.45;2285943;77;21005;-79
2022/05/16 07:17:48;;;;;;;33.13;3.20;;;;;;;20.00;39.23;99263.98;2285324;78;20965;-80
2022/05/16 07:20:48;;;;;;;12.00;2.42;;;;;;;20.07;39.00;99263.41;2286563;78;21017;-80
2022/05/16 07:23:48;;;;;;;5.37;2.67;;;;;;;20.10;37.89;99262.89;2287051;77;21603;-80
2022/05/16 07:30:08;;;;;;;3.72;2.00;;;;;;;20.57;36.90;99257.95;2287224;77;21347;-80
2022/05/16 07:33:08;;;;;;;5.05;2.10;;;;;;;20.59;37.60;99264.55;2286670;78;21012;-81
2022/05/16 07:36:08;;;;;;;3.70;1.70;;;;;;;20.84;37.01;99257.81;2286613;78;20971;-80
2022/05/16 07:39:09;;;;;;;4.90;2.22;;;;;;;20.92;37.14;99253.66;2286329;77;21420;-80
2022/05/16 07:42:09;;;;;;;3.20;1.82;;;;;;;21.16;36.23;99254.84;2286197;78;21016;-81
2022/05/16 07:45:10;;;;;;;5.47;1.70;;;;;;;21.18;35.94;99248.59;2286798;77;20985;-81
2022/05/16 07:48:13;;;;;;;3.33;1.77;;;;;;;21.39;35.74;99249.00;2285819;77;20978;-81
2022/05/16 07:51:14;;;;;;;3.15;1.82;;;;;;;21.40;35.26;99258.71;2286155;78;20977;-81
2022/05/16 07:54:14;;;;;;;27.45;17.40;;;;;;;21.65;35.35;99254.51;2286670;78;21469;-82
2022/05/16 07:57:14;;;;;;;4.05;2.50;;;;;;;21.66;34.64;99252.72;2286381;77;21008;-81
2022/05/16 08:00:15;;;;;;;2.98;1.90;;;;;;;21.76;35.06;99251.59;2286824;78;21024;-81
2022/05/16 08:03:15;;;;;;;6.97;2.10;;;;;;;21.85;35.09;99251.34;2286857;77;21417;-82
2022/05/16 08:06:16;;;;;;;6.08;2.42;;;;;;;21.92;34.46;99252.92;2286659;78;21163;-81
2022/05/16 08:12:35;;;;;;;3.55;1.90;;;;;;;21.83;34.30;99262.48;2286210;77;20950;-79
2022/05/16 08:15:36;;;;;;;6.67;2.37;;;;;;;21.81;34.77;99258.98;2286537;78;21380;-80
2022/05/16 08:18:36;;;;;;;3.40;2.08;;;;;;;22.02;34.58;99263.72;2287616;78;20985;-80
2022/05/16 08:21:37;;;;;;;13.45;2.67;;;;;;;22.22;34.89;99264.05;2286982;77;21298;-78
2022/05/16 08:24:37;;;;;;;6.87;2.42;;;;;;;22.54;34.60;99260.48;2285078;78;21014;-80
2022/05/16 08:27:37;;;;;;;3.33;2.05;;;;;;;22.69;33.70;99259.15;2286810;77;20938;-82
2022/05/16 08:30:38;;;;;;;4.50;2.40;;;;;;;22.42;33.06;99258.61;2286715;78;21028;-81
2022/05/16 08:33:38;;;;;;;4.20;1.90;;;;;;;22.19;32.38;99254.84;2286334;78;21002;-81
2022/05/16 08:40:03;;;;;;;3.83;2.05;;;;;;;22.17;32.65;99257.13;2286612;77;21021;-81
2022/05/16 08:43:04;;;;;;;4.90;1.70;;;;;;;22.13;31.30;99256.80;2286544;77;21507;-81
2022/05/16 08:46:04;;;;;;;4.53;2.00;;;;;;;22.24;31.98;99252.92;2286271;78;20961;-80
2022/05/16 08:49:04;;;;;;;3.58;1.67;;;;;;;22.28;31.03;99256.81;2285853;77;20949;-81
2022/05/16 08:52:05;;;;;;;6.45;1.87;;;;;;;22.15;32.14;99249.19;2286066;77;20950;-79
2022/05/16 08:55:05;;;;;;;3.35;2.12;;;;;;;22.23;32.02;99252.96;2286386;77;21006;-81
2022/05/16 08:58:07;;;;;;;6.87;2.42;;;;;;;22.18;31.03;99249.56;2286783;77;20978;-82
2022/05/16 09:01:06;;;;;;;6.40;2.67;;;;;;;21.99;31.59;99246.52;2287310;78;21013;-79
2022/05/16 09:04:06;;;;;;;2.77;1.95;;;;;;;22.04;31.96;99249.95;2286334;78;21069;-82
2022/05/16 09:07:07;;;;;;;3.65;1.90;;;;;;;22.18;31.60;99253.09;2287372;77;20922;-81
2022/05/16 09:10:07;;;;;;;6.22;2.22;;;;;;;22.40;31.82;99250.68;2288563;77;21306;-80
2022/05/16 09:13:08;;;;;;;6.55;2.42;;;;;;;22.58;31.95;99248.42;2287976;77;20953;-81
2022/05/16 09:16:09;;;;;;;20.17;3.12;;;;;;;22.84;31.07;99252.05;2288939;77;21306;-80
2022/05/16 09:19:09;;;;;;;4.58;2.22;;;;;;;22.92;31.00;99254.93;2286950;78;20965;-80
2022/05/16 09:22:09;;;;;;;6.33;2.30;;;;;;;22.80;31.06;99249.53;2286704;77;21001;-81
2022/05/16 09:25:09;;;;;;;13.08;2.75;;;;;;;22.68;31.55;99252.08;2286602;78;21003;-80
2022/05/16 09:31:28;;;;;;;4.60;2.37;;;;;;;23.01;31.73;99254.17;2286332;77;21059;-82
2022/05/16 09:34:29;;;;;;;15.63;2.72;;;;;;;23.12;32.65;99251.17;2286329;77;20981;-80
2022/05/16 09:37:29;;;;;;;4.10;2.25;;;;;;;23.38;31.45;99252.97;2287515;78;20961;-81
2022/05/16 09:40:30;;;;;;;4.35;1.82;;;;;;;23.15;31.12;99257.27;2266936;77;20954;-82
2022/05/16 09:43:30;;;;;;;3.65;2.05;;;;;;;23.10;31.19;99252.55;2259764;79;21005;-82
2022/05/16 09:46:31;;;;;;;4.12;2.05;;;;;;;23.09;31.51;99244.61;2260781;78;20985;-83
2022/05/16 09:49:31;;;;;;;3.70;2.02;;;;;;;23.09;30.82;99247.27;2259201;78;20992;-84
2022/05/16 09:52:31;;;;;;;4.17;1.80;;;;;;;23.26;30.80;99248.92;2258804;78;20926;-81
2022/05/16 09:55:35;;;;;;;6.28;2.10;;;;;;;23.36;31.05;99246.36;2259399;78;21004;-80
2022/05/16 09:58:35;;;;;;;3.50;2.22;;;;;;;23.55;30.37;99250.67;2259512;78;20981;-81
2022/05/16 10:01:37;;;;;;;8.23;2.15;;;;;;;23.67;30.14;99245.38;2259248;78;21028;-82
2022/05/16 10:04:39;;;;;;;3.33;2.37;;;;;;;23.41;29.57;99253.77;2259613;78;21040;-81
2022/05/16 10:07:40;;;;;;;5.83;2.10;;;;;;;23.08;30.09;99248.19;2260520;78;20962;-81
2022/05/16 10:10:40;;;;;;;5.60;2.10;;;;;;;23.17;29.39;99236.78;2260399;78;21372;-84
2022/05/16 10:13:40;;;;;;;3.25;1.67;;;;;;;22.93;30.26;99236.25;2261081;78;20981;-84
2022/05/16 10:16:41;;;;;;;6.87;2.12;;;;;;;23.21;30.16;99237.55;2261891;78;20953;-81
2022/05/16 10:19:41;;;;;;;5.45;2.35;;;;;;;23.81;29.52;99233.30;2261732;78;21420;-80
2022/05/16 10:22:41;;;;;;;2.75;1.98;;;;;;;23.96;29.31;99226.55;2260223;78;20998;-81
2022/05/16 10:25:44;;;;;;;12.47;2.55;;;;;;;23.71;29.23;99223.02;2260530;78;21033;-81
2022/05/16 10:28:46;;;;;;;9.38;2.62;;;;;;;23.51;29.22;99233.88;2252120;79;20926;-82
2022/05/16 10:35:04;;;;;;;3.77;1.92;;;;;;;23.22;28.71;99235.76;2260032;78;21024;-80
2022/05/16 10:38:04;;;;;;;5.60;2.37;;;;;;;22.96;30.17;99229.50;2258912;78;20981;-82
2022/05/16 10:41:04;;;;;;;6.60;2.20;;;;;;;22.76;30.67;99228.77;2281831;78;20973;-79
2022/05/16 10:44:06;;;;;;;4.35;2.22;;;;;;;22.61;30.22;99234.56;2286096;77;21048;-80
2022/05/16 10:47:06;;;;;;;3.52;2.05;;;;;;;22.34;30.39;99232.70;2287386;78;20949;-79
2022/05/16 10:50:06;;;;;;;7.75;2.60;;;;;;;22.48;30.88;99226.05;2287960;77;20993;-80
2022/05/16 10:53:09;;;;;;;4.45;1.92;;;;;;;22.56;30.74;99216.54;2287337;78;20950;-78
2022/05/16 10:56:06;;;;;;;2.65;1.80;;;;;;;22.96;29.64;99219.30;2286633;78;21028;-80
2022/05/16 10:59:07;;;;;;;4.78;2.30;;;;;;;22.97;29.12;99215.72;2285769;77;21997;-79
2022/05/16 11:02:07;;;;;;;3.55;2.42;;;;;;;23.13;29.19;99212.97;2285823;77;21004;-80
2022/05/16 11:05:08;;;;;;;3.92;2.20;;;;;;;23.35;29.40;99207.33;2286933;78;20953;-83
2022/05/16 11:08:11;;;;;;;17.35;3.33;;;;;;;23.59;28.15;99220.79;2287185;78;21016;-81
2022/05/16 11:11:12;;;;;;;9.25;2.40;;;;;;;23.48;28.42;99208.68;2287558;77;20953;-80
2022/05/16 11:14:12;;;;;;;5.25;2.20;;;;;;;23.58;28.79;99198.60;2287186;77;21860;-81
2022/05/16 11:17:13;;;;;;;5.33;2.30;;;;;;;23.77;27.97;99214.34;2286703;77;21001;-81
2022/05/16 11:20:15;;;;;;;8.40;2.15;;;;;;;23.68;28.15;99204.02;2286174;78;21207;-80
2022/05/16 11:23:13;;;;;;;4.37;2.02;;;;;;;23.80;28.46;99197.38;2286950;78;21320;-80
2022/05/16 11:26:14;;;;;;;6.53;2.67;;;;;;;23.94;27.97;99199.07;2286596;77;20937;-79
2022/05/16 11:29:17;;;;;;;5.62;2.30;;;;;;;24.15;27.90;99192.94;2286357;77;20969;-81
2022/05/16 11:32:17;;;;;;;22.37;2.70;;;;;;;24.07;27.88;99200.36;2286811;77;21060;-81
2022/05/16 11:35:18;;;;;;;6.28;2.20;;;;;;;23.78;28.44;99202.76;2286851;78;20958;-80
2022/05/16 11:38:18;;;;;;;8.48;2.08;;;;;;;23.75;28.05;99206.00;2286066;77;22020;-81
2022/05/16 11:41:19;;;;;;;9.93;2.62;;;;;;;23.69;27.77;99196.42;2283645;78;21004;-79
2022/05/16 11:44:20;;;;;;;5.28;2.37;;;;;;;23.89;28.20;99190.38;2282997;78;20967;-81
2022/05/16 11:47:19;;;;;;;4.55;2.67;;;;;;;24.41;27.53;99183.13;2283536;78;20965;-80
2022/05/16 11:50:20;;;;;;;5.65;2.15;;;;;;;24.82;27.47;99177.48;2283544;78;21033;-82
2022/05/16 11:53:20;;;;;;;7.45;2.25;;;;;;;25.07;27.16;99170.70;2283454;78;21922;-81
2022/05/16 12:02:58;;;;;;;4.55;2.80;;;;;;;24.52;27.13;99174.24;2282897;78;21056;-81
2022/05/16 12:05:59;;;;;;;122.37;11.15;;;;;;;24.49;27.50;99171.70;2283076;78;20985;-81
2022/05/16 12:08:59;;;;;;;10.95;3.42;;;;;;;24.84;27.19;99160.06;2283771;78;21491;-80
2022/05/16 12:12:00;;;;;;;7.12;2.60;;;;;;;25.15;27.23;99160.59;2283771;78;21001;-82
2022/05/16 12:15:00;;;;;;;3.98;2.45;;;;;;;25.17;27.15;99171.20;2282547;78;20993;-80
2022/05/16 12:18:01;;;;;;;5.80;2.77;;;;;;;24.98;27.34;99163.06;2282037;78;21412;-81
2022/05/16 12:21:01;;;;;;;5.65;2.25;;;;;;;25.11;27.23;99160.28;2282440;78;21005;-80
2022/05/16 12:24:01;;;;;;;2.95;1.98;;;;;;;24.85;26.51;99169.81;2282095;78;22118;-83
2022/05/16 12:27:02;;;;;;;28.47;5.15;;;;;;;24.63;27.37;99174.69;2282736;78;20962;-81
2022/05/16 12:30:02;;;;;;;6.35;2.87;;;;;;;24.42;27.37;99178.20;2282756;78;21025;-81
2022/05/16 12:33:03;;;;;;;6.35;2.45;;;;;;;24.35;27.76;99170.03;2282474;78;21056;-80
2022/05/16 12:36:03;;;;;;;3.05;2.15;;;;;;;24.48;27.78;99165.09;2283105;78;21012;-80
2022/05/16 12:39:03;;;;;;;7.12;2.58;;;;;;;24.71;27.58;99167.23;2283802;78;21028;-82
2022/05/16 12:42:04;;;;;;;4.37;2.70;;;;;;;24.73;27.24;99161.38;2286775;78;21043;-80
2022/05/16 12:45:04;;;;;;;10.98;2.55;;;;;;;24.62;27.04;99158.27;2286275;78;21006;-82
2022/05/16 12:48:04;;;;;;;6.28;2.52;;;;;;;24.53;27.53;99155.09;2286215;78;20981;-82
2022/05/16 12:51:05;;;;;;;3.30;2.40;;;;;;;24.56;27.15;99151.84;2285678;78;21001;-78
2022/05/16 12:54:07;;;;;;;4.92;2.30;;;;;;;24.75;26.86;99148.83;2284321;77;20958;-81
2022/05/16 12:57:06;;;;;;;3.17;2.08;;;;;;;24.78;27.12;99148.70;2286015;78;20959;-80
2022/05/16 13:00:06;;;;;;;55.35;5.30;;;;;;;24.84;26.89;99147.59;2286659;78;20917;-82
2022/05/16 13:03:06;;;;;;;5.60;2.47;;;;;;;24.87;27.18;99151.92;2286643;77;21424;-80
2022/05/16 13:06:08;;;;;;;4.20;2.60;;;;;;;24.67;27.47;99146.94;2285998;77;20992;-80
2022/05/16 13:09:07;;;;;;;9.10;3.05;;;;;;;24.76;27.10;99145.23;2286554;77;21021;-81
2022/05/16 13:12:08;;;;;;;9.58;2.50;;;;;;;24.74;27.17;99144.42;2286400;78;20937;-81
2022/05/16 13:15:08;;;;;;;17.60;3.25;;;;;;;24.83;27.31;99151.66;2286111;77;21012;-81
2022/05/16 13:18:09;;;;;;;4.40;2.22;;;;;;;24.68;27.07;99147.34;2286831;77;20993;-80
2022/05/16 13:21:10;;;;;;;8.78;2.10;;;;;;;24.61;26.28;99152.99;2286014;78;20977;-80
2022/05/16 13:24:10;;;;;;;6.20;2.20;;;;;;;24.73;26.34;99142.69;2285810;78;21025;-81
2022/05/16 13:30:29;;;;;;;6.90;2.72;;;;;;;24.92;26.53;99129.44;2285747;77;20965;-80
2022/05/16 13:33:33;;;;;;;5.20;2.33;;;;;;;25.12;26.52;99124.63;2285436;77;21009;-80
2022/05/16 13:36:31;;;;;;;8.50;2.30;;;;;;;25.16;26.43;99124.92;2253423;78;20962;-80
2022/05/16 13:39:32;;;;;;;12.35;2.52;;;;;;;25.27;26.57;99125.80;2285954;78;20986;-79
2022/05/16 13:42:32;;;;;;;5.17;2.47;;;;;;;25.15;25.65;99123.66;2275115;78;21516;-80
2022/05/16 13:45:33;;;;;;;6.72;2.33;;;;;;;25.22;26.11;99122.46;2275438;78;20973;-80
2022/05/16 13:48:33;;;;;;;4.42;2.25;;;;;;;25.36;25.67;99127.61;2276071;78;21001;-79
2022/05/16 13:51:34;;;;;;;82.67;9.55;;;;;;;25.54;25.44;99115.23;2277935;78;20954;-80
2022/05/16 13:54:34;;;;;;;11.68;2.67;;;;;;;25.72;25.02;99102.88;2278036;78;21054;-79
2022/05/16 13:57:34;;;;;;;5.45;2.12;;;;;;;25.92;25.38;99104.63;2279502;78;20949;-79
2022/05/16 14:00:38;;;;;;;3.47;2.10;;;;;;;25.95;25.76;99100.48;2279492;78;20939;-81
2022/05/16 14:03:38;;;;;;;;;;;;;;;25.94;25.50;99095.59;2281673;78;20990;-80
2022/05/16 14:06:39;;;;;;;4.75;2.30;;;;;;;25.71;25.84;99101.14;2277371;78;20104;-80
2022/05/16 14:09:39;;;;;;;7.17;2.25;;;;;;;25.60;26.59;99088.70;2278486;78;21050;-78
2022/05/16 14:12:39;;;;;;;6.62;2.67;;;;;;;25.74;26.44;99092.98;2278050;78;20958;-77
2022/05/16 14:15:40;;;;;;;8.93;2.62;;;;;;;25.55;26.71;99084.89;2277790;78;21022;-78
2022/05/16 14:18:40;;;;;;;7.00;2.17;;;;;;;25.32;26.54;99089.94;2277790;78;20946;-78
2022/05/16 14:21:40;;;;;;;3.42;2.15;;;;;;;25.20;27.32;99090.47;2279090;78;21014;-78
2022/05/16 14:24:42;;;;;;;18.80;4.65;;;;;;;25.07;26.53;99092.77;2279752;78;21353;-79
2022/05/16 14:27:41;;;;;;;5.90;2.00;;;;;;;25.04;27.28;99082.22;2279585;78;20883;-79
2022/05/16 14:30:42;;;;;;;16.23;2.98;;;;;;;25.05;26.50;99081.75;2279407;78;21013;-80
2022/05/16 14:33:42;;;;;;;6.28;2.70;;;;;;;24.73;27.09;99089.30;2278839;78;21036;-80
2022/05/16 14:36:42;;;;;;;9.25;2.98;;;;;;;24.44;27.46;99079.82;2279542;78;20943;-80
2022/05/16 14:39:43;;;;;;;18.75;3.20;;;;;;;24.56;27.66;99081.13;2278915;77;21366;-80
2022/05/16 14:42:44;;;;;;;5.97;2.50;;;;;;;24.48;27.67;99079.23;2286239;78;20950;-80
2022/05/16 14:49:03;;;;;;;6.15;2.33;;;;;;;24.48;27.75;99071.70;2285951;78;20998;-81
2022/05/16 14:52:03;;;;;;;7.22;2.55;;;;;;;24.30;27.92;99071.98;2286516;78;20957;-81
2022/05/16 14:55:04;;;;;;;8.40;3.10;;;;;;;24.24;28.27;99074.36;2286387;78;20961;-82
2022/05/16 14:58:04;;;;;;;17.52;3.77;;;;;;;24.22;28.46;99072.69;2286716;78;21317;-81